sensor_id;sensor_type;location;lat;lon;timestamp;temperature;humidity
5689;DHT22;2869;50.432;8.680;2023-04-15T00:01:34;6.50;99.90
5689;DHT22;2869;50.432;8.680;2023-04-15T00:04:01;6.50;99.90
5689;DHT22;2869;50.432;8.680;2023-04-15T00:06:30;6.50;99.90
5689;DHT22;2869;50.432;8.680;2023-04-15T00:08:56;6.40;99.90
5689;DHT22;2869;50.432;8.680;2023-04-15T00:11:23;6.40;99.90
5689;DHT22;2869;50.432;8.680;2023-04-15T00:13:50;6.40;99.90
5689;DHT22;2869;50.432;8.680;2023-04-15T00:16:17;6.40;99.90
5689;DHT22;2869;50.432;8.680;2023-04-15T00:18:43;6.40;99.90
5689;DHT22;2869;50.432;8.680;2023-04-15T00:21:10;6.50;99.90
5689;DHT22;2869;50.432;8.680;2023-04-15T00:23:38;6.50;99.90
5689;DHT22;2869;50.432;8.680;2023-04-15T00:26:05;6.50;99.90
5689;DHT22;2869;50.432;8.680;2023-04-15T00:28:31;6.50;99.90
5689;DHT22;2869;50.432;8.680;2023-04-15T00:30:58;6.60;99.90
5689;DHT22;2869;50.432;8.680;2023-04-15T00:33:25;6.60;99.90
5689;DHT22;2869;50.432;8.680;2023-04-15T00:35:51;6.50;99.90
5689;DHT22;2869;50.432;8.680;2023-04-15T00:38:18;6.60;99.90
5689;DHT22;2869;50.432;8.680;2023-04-15T00:40:46;6.50;99.90
5689;DHT22;2869;50.432;8.680;2023-04-15T00:43:13;6.50;99.90
5689;DHT22;2869;50.432;8.680;2023-04-15T00:45:40;6.40;99.90
5689;DHT22;2869;50.432;8.680;2023-04-15T00:48:07;6.40;99.90
5689;DHT22;2869;50.432;8.680;2023-04-15T00:50:34;6.40;99.90
5689;DHT22;2869;50.432;8.680;2023-04-15T00:53:01;6.40;99.90
5689;DHT22;2869;50.432;8.680;2023-04-15T00:55:28;6.30;99.90
5689;DHT22;2869;50.432;8.680;2023-04-15T00:57:56;6.30;99.90
5689;DHT22;2869;50.432;8.680;2023-04-15T01:00:23;6.30;99.90
5689;DHT22;2869;50.432;8.680;2023-04-15T01:02:50;6.30;99.90
5689;DHT22;2869;50.432;8.680;2023-04-15T01:05:17;6.30;99.90
5689;DHT22;2869;50.432;8.680;2023-04-15T01:07:44;6.20;99.90
5689;DHT22;2869;50.432;8.680;2023-04-15T01:10:10;6.20;99.90
5689;DHT22;2869;50.432;8.680;2023-04-15T01:12:37;6.20;99.90
5689;DHT22;2869;50.432;8.680;2023-04-15T01:15:07;6.20;99.90
5689;DHT22;2869;50.432;8.680;2023-04-15T01:17:35;6.20;99.90
5689;DHT22;2869;50.432;8.680;2023-04-15T01:20:03;6.20;99.90
5689;DHT22;2869;50.432;8.680;2023-04-15T01:22:29;6.20;99.90
5689;DHT22;2869;50.432;8.680;2023-04-15T01:25:01;6.10;99.90
5689;DHT22;2869;50.432;8.680;2023-04-15T01:27:34;6.10;99.90
5689;DHT22;2869;50.432;8.680;2023-04-15T01:30:01;6.10;99.90
5689;DHT22;2869;50.432;8.680;2023-04-15T01:32:29;6.10;99.90
5689;DHT22;2869;50.432;8.680;2023-04-15T01:34:56;6.10;99.90
5689;DHT22;2869;50.432;8.680;2023-04-15T01:37:23;6.10;99.90
5689;DHT22;2869;50.432;8.680;2023-04-15T01:39:50;6.20;99.90
5689;DHT22;2869;50.432;8.680;2023-04-15T01:42:17;6.10;99.90
5689;DHT22;2869;50.432;8.680;2023-04-15T01:44:45;6.10;99.90
5689;DHT22;2869;50.432;8.680;2023-04-15T01:47:11;6.10;99.90
5689;DHT22;2869;50.432;8.680;2023-04-15T01:49:38;6.10;99.90
5689;DHT22;2869;50.432;8.680;2023-04-15T01:52:05;6.10;99.90
5689;DHT22;2869;50.432;8.680;2023-04-15T01:54:32;6.10;99.90
5689;DHT22;2869;50.432;8.680;2023-04-15T01:56:59;6.00;99.90
5689;DHT22;2869;50.432;8.680;2023-04-15T01:59:26;6.00;99.90
5689;DHT22;2869;50.432;8.680;2023-04-15T02:01:55;6.00;99.90
5689;DHT22;2869;50.432;8.680;2023-04-15T02:04:22;5.90;99.90
5689;DHT22;2869;50.432;8.680;2023-04-15T02:06:48;5.90;99.90
5689;DHT22;2869;50.432;8.680;2023-04-15T02:09:15;5.90;99.90
5689;DHT22;2869;50.432;8.680;2023-04-15T02:11:42;5.90;99.90
5689;DHT22;2869;50.432;8.680;2023-04-15T02:14:09;5.80;99.90
5689;DHT22;2869;50.432;8.680;2023-04-15T02:16:35;5.80;99.90
5689;DHT22;2869;50.432;8.680;2023-04-15T02:19:03;5.80;99.90
5689;DHT22;2869;50.432;8.680;2023-04-15T02:21:30;5.80;99.90
5689;DHT22;2869;50.432;8.680;2023-04-15T02:23:57;5.80;99.90
5689;DHT22;2869;50.432;8.680;2023-04-15T02:26:23;5.80;99.90
5689;DHT22;2869;50.432;8.680;2023-04-15T02:28:50;5.80;99.90
5689;DHT22;2869;50.432;8.680;2023-04-15T02:31:17;5.80;99.90
5689;DHT22;2869;50.432;8.680;2023-04-15T02:33:43;5.80;99.90
5689;DHT22;2869;50.432;8.680;2023-04-15T02:36:12;5.80;99.90
5689;DHT22;2869;50.432;8.680;2023-04-15T02:38:39;5.80;99.90
5689;DHT22;2869;50.432;8.680;2023-04-15T02:41:07;5.90;99.90
5689;DHT22;2869;50.432;8.680;2023-04-15T02:43:34;5.90;99.90
5689;DHT22;2869;50.432;8.680;2023-04-15T02:46:01;5.90;99.90
5689;DHT22;2869;50.432;8.680;2023-04-15T02:48:27;5.80;99.90
5689;DHT22;2869;50.432;8.680;2023-04-15T02:51:16;5.80;99.90
5689;DHT22;2869;50.432;8.680;2023-04-15T02:53:44;5.80;99.90
5689;DHT22;2869;50.432;8.680;2023-04-15T02:56:11;5.80;99.90
5689;DHT22;2869;50.432;8.680;2023-04-15T02:58:39;5.80;99.90
5689;DHT22;2869;50.432;8.680;2023-04-15T03:01:06;5.70;99.90
5689;DHT22;2869;50.432;8.680;2023-04-15T03:03:33;5.70;99.90
5689;DHT22;2869;50.432;8.680;2023-04-15T03:06:00;5.60;99.90
5689;DHT22;2869;50.432;8.680;2023-04-15T03:08:28;5.60;99.90
5689;DHT22;2869;50.432;8.680;2023-04-15T03:10:57;5.50;99.90
5689;DHT22;2869;50.432;8.680;2023-04-15T03:13:25;5.30;99.90
5689;DHT22;2869;50.432;8.680;2023-04-15T03:15:51;5.10;99.90
5689;DHT22;2869;50.432;8.680;2023-04-15T03:18:18;4.90;99.90
5689;DHT22;2869;50.432;8.680;2023-04-15T03:20:45;4.80;99.90
5689;DHT22;2869;50.432;8.680;2023-04-15T03:23:11;4.70;99.90
5689;DHT22;2869;50.432;8.680;2023-04-15T03:25:39;4.70;99.90
5689;DHT22;2869;50.432;8.680;2023-04-15T03:28:06;4.70;99.90
5689;DHT22;2869;50.432;8.680;2023-04-15T03:30:32;4.70;99.90
5689;DHT22;2869;50.432;8.680;2023-04-15T03:32:59;4.70;99.90
5689;DHT22;2869;50.432;8.680;2023-04-15T03:35:26;4.70;99.90
5689;DHT22;2869;50.432;8.680;2023-04-15T03:37:52;4.70;99.90
5689;DHT22;2869;50.432;8.680;2023-04-15T03:40:20;4.70;99.90
5689;DHT22;2869;50.432;8.680;2023-04-15T03:42:48;4.70;99.90
5689;DHT22;2869;50.432;8.680;2023-04-15T03:45:15;4.80;99.90
5689;DHT22;2869;50.432;8.680;2023-04-15T03:47:41;4.80;99.90
5689;DHT22;2869;50.432;8.680;2023-04-15T03:50:08;4.80;99.90
5689;DHT22;2869;50.432;8.680;2023-04-15T03:52:35;4.80;99.90
5689;DHT22;2869;50.432;8.680;2023-04-15T03:55:02;4.80;99.90
5689;DHT22;2869;50.432;8.680;2023-04-15T03:57:29;4.80;99.90
5689;DHT22;2869;50.432;8.680;2023-04-15T03:59:57;4.80;99.90
5689;DHT22;2869;50.432;8.680;2023-04-15T04:02:24;4.70;99.90
5689;DHT22;2869;50.432;8.680;2023-04-15T04:04:52;4.70;99.90
5689;DHT22;2869;50.432;8.680;2023-04-15T04:07:19;4.80;99.90
5689;DHT22;2869;50.432;8.680;2023-04-15T04:09:45;4.80;99.90
5689;DHT22;2869;50.432;8.680;2023-04-15T04:12:12;4.80;99.90
5689;DHT22;2869;50.432;8.680;2023-04-15T04:14:38;4.80;99.90
5689;DHT22;2869;50.432;8.680;2023-04-15T04:17:07;4.90;99.90
5689;DHT22;2869;50.432;8.680;2023-04-15T04:19:33;4.90;99.90
5689;DHT22;2869;50.432;8.680;2023-04-15T04:22:00;4.80;99.90
5689;DHT22;2869;50.432;8.680;2023-04-15T04:24:27;4.80;99.90
5689;DHT22;2869;50.432;8.680;2023-04-15T04:26:53;4.80;99.90
5689;DHT22;2869;50.432;8.680;2023-04-15T04:29:20;4.80;99.90
5689;DHT22;2869;50.432;8.680;2023-04-15T04:31:47;4.90;99.90
5689;DHT22;2869;50.432;8.680;2023-04-15T04:34:15;4.90;99.90
5689;DHT22;2869;50.432;8.680;2023-04-15T04:36:42;5.00;99.90
5689;DHT22;2869;50.432;8.680;2023-04-15T04:39:08;5.00;99.90
5689;DHT22;2869;50.432;8.680;2023-04-15T04:41:35;5.00;99.90
5689;DHT22;2869;50.432;8.680;2023-04-15T04:44:02;5.00;99.90
5689;DHT22;2869;50.432;8.680;2023-04-15T04:46:28;5.00;99.90
5689;DHT22;2869;50.432;8.680;2023-04-15T04:48:55;5.00;99.90
5689;DHT22;2869;50.432;8.680;2023-04-15T04:51:23;5.00;99.90
5689;DHT22;2869;50.432;8.680;2023-04-15T04:53:50;5.00;99.90
5689;DHT22;2869;50.432;8.680;2023-04-15T04:56:17;5.00;99.90
5689;DHT22;2869;50.432;8.680;2023-04-15T04:58:43;5.10;99.90
5689;DHT22;2869;50.432;8.680;2023-04-15T05:01:11;5.10;99.90
5689;DHT22;2869;50.432;8.680;2023-04-15T05:03:38;5.00;99.90
5689;DHT22;2869;50.432;8.680;2023-04-15T05:06:05;5.00;99.90
5689;DHT22;2869;50.432;8.680;2023-04-15T05:08:34;5.00;99.90
5689;DHT22;2869;50.432;8.680;2023-04-15T05:11:01;5.00;99.90
5689;DHT22;2869;50.432;8.680;2023-04-15T05:13:28;5.00;99.90
5689;DHT22;2869;50.432;8.680;2023-04-15T05:15:55;5.00;99.90
5689;DHT22;2869;50.432;8.680;2023-04-15T05:18:22;5.00;99.90
5689;DHT22;2869;50.432;8.680;2023-04-15T05:20:48;5.00;99.90
5689;DHT22;2869;50.432;8.680;2023-04-15T05:23:15;5.00;99.90
5689;DHT22;2869;50.432;8.680;2023-04-15T05:25:44;5.10;99.90
5689;DHT22;2869;50.432;8.680;2023-04-15T05:28:11;5.10;99.90
5689;DHT22;2869;50.432;8.680;2023-04-15T05:30:38;5.20;99.90
5689;DHT22;2869;50.432;8.680;2023-04-15T05:33:05;5.30;99.90
5689;DHT22;2869;50.432;8.680;2023-04-15T05:35:31;5.30;99.90
5689;DHT22;2869;50.432;8.680;2023-04-15T05:37:58;5.40;99.90
5689;DHT22;2869;50.432;8.680;2023-04-15T05:40:25;5.50;99.90
5689;DHT22;2869;50.432;8.680;2023-04-15T05:42:53;5.60;99.90
5689;DHT22;2869;50.432;8.680;2023-04-15T05:45:19;5.60;99.90
5689;DHT22;2869;50.432;8.680;2023-04-15T05:47:46;5.60;99.90
5689;DHT22;2869;50.432;8.680;2023-04-15T05:50:14;5.60;99.90
5689;DHT22;2869;50.432;8.680;2023-04-15T05:52:41;5.60;99.90
5689;DHT22;2869;50.432;8.680;2023-04-15T05:55:08;5.60;99.90
5689;DHT22;2869;50.432;8.680;2023-04-15T05:57:35;5.60;99.90
5689;DHT22;2869;50.432;8.680;2023-04-15T06:00:04;5.70;99.90
5689;DHT22;2869;50.432;8.680;2023-04-15T06:02:31;5.70;99.90
5689;DHT22;2869;50.432;8.680;2023-04-15T06:04:57;5.70;99.90
5689;DHT22;2869;50.432;8.680;2023-04-15T06:07:25;5.80;99.90
5689;DHT22;2869;50.432;8.680;2023-04-15T06:09:51;5.80;99.90
5689;DHT22;2869;50.432;8.680;2023-04-15T06:12:18;5.90;99.90
5689;DHT22;2869;50.432;8.680;2023-04-15T06:14:45;6.00;99.90
5689;DHT22;2869;50.432;8.680;2023-04-15T06:17:13;6.00;99.90
5689;DHT22;2869;50.432;8.680;2023-04-15T06:19:42;6.10;99.90
5689;DHT22;2869;50.432;8.680;2023-04-15T06:22:09;6.20;99.90
5689;DHT22;2869;50.432;8.680;2023-04-15T06:24:36;6.20;99.90
5689;DHT22;2869;50.432;8.680;2023-04-15T06:27:02;6.30;99.90
5689;DHT22;2869;50.432;8.680;2023-04-15T06:29:29;6.40;99.90
5689;DHT22;2869;50.432;8.680;2023-04-15T06:31:56;6.40;99.90
5689;DHT22;2869;50.432;8.680;2023-04-15T06:34:24;6.50;99.90
5689;DHT22;2869;50.432;8.680;2023-04-15T06:36:50;6.60;99.90
5689;DHT22;2869;50.432;8.680;2023-04-15T06:39:19;6.70;99.90
5689;DHT22;2869;50.432;8.680;2023-04-15T06:41:45;6.70;99.90
5689;DHT22;2869;50.432;8.680;2023-04-15T06:44:12;6.80;99.90
5689;DHT22;2869;50.432;8.680;2023-04-15T06:46:39;6.90;99.90
5689;DHT22;2869;50.432;8.680;2023-04-15T06:49:05;6.90;99.90
5689;DHT22;2869;50.432;8.680;2023-04-15T06:51:34;7.00;99.90
5689;DHT22;2869;50.432;8.680;2023-04-15T06:54:01;7.10;99.90
5689;DHT22;2869;50.432;8.680;2023-04-15T06:56:30;7.10;99.90
5689;DHT22;2869;50.432;8.680;2023-04-15T06:58:57;7.20;99.90
5689;DHT22;2869;50.432;8.680;2023-04-15T07:01:23;7.30;99.90
5689;DHT22;2869;50.432;8.680;2023-04-15T07:03:50;7.40;99.90
5689;DHT22;2869;50.432;8.680;2023-04-15T07:06:17;7.60;99.90
5689;DHT22;2869;50.432;8.680;2023-04-15T07:08:45;7.70;99.90
5689;DHT22;2869;50.432;8.680;2023-04-15T07:11:12;7.90;99.90
5689;DHT22;2869;50.432;8.680;2023-04-15T07:13:38;8.00;99.90
5689;DHT22;2869;50.432;8.680;2023-04-15T07:16:05;8.20;99.90
5689;DHT22;2869;50.432;8.680;2023-04-15T07:18:32;8.50;99.90
5689;DHT22;2869;50.432;8.680;2023-04-15T07:20:58;8.80;99.90
5689;DHT22;2869;50.432;8.680;2023-04-15T07:23:25;8.90;99.90
5689;DHT22;2869;50.432;8.680;2023-04-15T07:25:53;8.90;99.90
5689;DHT22;2869;50.432;8.680;2023-04-15T07:28:20;9.00;99.90
5689;DHT22;2869;50.432;8.680;2023-04-15T07:30:47;9.00;99.90
5689;DHT22;2869;50.432;8.680;2023-04-15T07:33:14;9.10;99.90
5689;DHT22;2869;50.432;8.680;2023-04-15T07:35:41;9.20;99.90
5689;DHT22;2869;50.432;8.680;2023-04-15T07:38:07;9.20;99.90
5689;DHT22;2869;50.432;8.680;2023-04-15T07:40:34;9.20;99.90
5689;DHT22;2869;50.432;8.680;2023-04-15T07:43:02;9.30;99.90
5689;DHT22;2869;50.432;8.680;2023-04-15T07:45:29;9.40;99.90
5689;DHT22;2869;50.432;8.680;2023-04-15T07:47:55;9.50;99.90
5689;DHT22;2869;50.432;8.680;2023-04-15T07:50:22;9.70;99.90
5689;DHT22;2869;50.432;8.680;2023-04-15T07:52:49;10.10;99.90
5689;DHT22;2869;50.432;8.680;2023-04-15T07:55:16;10.50;99.90
5689;DHT22;2869;50.432;8.680;2023-04-15T07:57:46;10.60;99.90
5689;DHT22;2869;50.432;8.680;2023-04-15T08:00:15;10.50;99.90
5689;DHT22;2869;50.432;8.680;2023-04-15T08:02:42;10.50;99.90
5689;DHT22;2869;50.432;8.680;2023-04-15T08:05:12;10.40;99.90
5689;DHT22;2869;50.432;8.680;2023-04-15T08:07:39;10.20;99.90
5689;DHT22;2869;50.432;8.680;2023-04-15T08:10:07;10.20;99.90
5689;DHT22;2869;50.432;8.680;2023-04-15T08:12:33;10.20;99.90
5689;DHT22;2869;50.432;8.680;2023-04-15T08:15:00;10.20;99.90
5689;DHT22;2869;50.432;8.680;2023-04-15T08:17:28;10.30;99.90
5689;DHT22;2869;50.432;8.680;2023-04-15T08:19:55;10.60;99.90
5689;DHT22;2869;50.432;8.680;2023-04-15T08:22:22;10.90;99.90
5689;DHT22;2869;50.432;8.680;2023-04-15T08:24:49;11.10;99.90
5689;DHT22;2869;50.432;8.680;2023-04-15T08:27:16;11.40;99.90
5689;DHT22;2869;50.432;8.680;2023-04-15T08:29:43;11.60;99.90
5689;DHT22;2869;50.432;8.680;2023-04-15T08:32:10;11.70;99.90
5689;DHT22;2869;50.432;8.680;2023-04-15T08:34:38;11.90;99.90
5689;DHT22;2869;50.432;8.680;2023-04-15T08:37:05;12.00;99.90
5689;DHT22;2869;50.432;8.680;2023-04-15T08:39:32;12.20;99.90
5689;DHT22;2869;50.432;8.680;2023-04-15T08:42:00;12.20;99.90
5689;DHT22;2869;50.432;8.680;2023-04-15T08:44:29;12.10;99.90
5689;DHT22;2869;50.432;8.680;2023-04-15T08:47:00;12.10;99.90
5689;DHT22;2869;50.432;8.680;2023-04-15T08:49:28;12.00;99.90
5689;DHT22;2869;50.432;8.680;2023-04-15T08:51:58;11.90;99.90
5689;DHT22;2869;50.432;8.680;2023-04-15T08:54:25;11.90;99.90
5689;DHT22;2869;50.432;8.680;2023-04-15T08:56:52;11.90;99.90
5689;DHT22;2869;50.432;8.680;2023-04-15T08:59:20;11.80;99.90
5689;DHT22;2869;50.432;8.680;2023-04-15T09:01:47;12.00;99.90
5689;DHT22;2869;50.432;8.680;2023-04-15T09:04:15;12.00;99.90
5689;DHT22;2869;50.432;8.680;2023-04-15T09:06:42;12.00;99.90
5689;DHT22;2869;50.432;8.680;2023-04-15T09:09:11;11.90;99.90
5689;DHT22;2869;50.432;8.680;2023-04-15T09:11:38;11.90;99.90
5689;DHT22;2869;50.432;8.680;2023-04-15T09:14:05;11.80;99.90
5689;DHT22;2869;50.432;8.680;2023-04-15T09:16:55;11.70;99.90
5689;DHT22;2869;50.432;8.680;2023-04-15T09:19:22;11.60;99.90
5689;DHT22;2869;50.432;8.680;2023-04-15T09:21:51;11.50;99.90
5689;DHT22;2869;50.432;8.680;2023-04-15T09:24:20;11.40;99.90
5689;DHT22;2869;50.432;8.680;2023-04-15T09:26:47;11.30;99.90
5689;DHT22;2869;50.432;8.680;2023-04-15T09:29:17;11.20;99.90
5689;DHT22;2869;50.432;8.680;2023-04-15T09:31:44;11.10;99.90
5689;DHT22;2869;50.432;8.680;2023-04-15T09:34:10;11.10;99.90
5689;DHT22;2869;50.432;8.680;2023-04-15T09:36:51;11.10;99.90
5689;DHT22;2869;50.432;8.680;2023-04-15T09:39:19;11.10;99.90
5689;DHT22;2869;50.432;8.680;2023-04-15T09:41:46;11.10;99.90
5689;DHT22;2869;50.432;8.680;2023-04-15T09:44:29;11.10;99.90
5689;DHT22;2869;50.432;8.680;2023-04-15T09:46:55;11.10;99.90
5689;DHT22;2869;50.432;8.680;2023-04-15T09:49:22;11.10;99.90
5689;DHT22;2869;50.432;8.680;2023-04-15T09:51:49;11.10;99.90
5689;DHT22;2869;50.432;8.680;2023-04-15T09:54:20;11.10;99.90
5689;DHT22;2869;50.432;8.680;2023-04-15T09:56:46;11.10;99.90
5689;DHT22;2869;50.432;8.680;2023-04-15T09:59:13;11.10;99.90
5689;DHT22;2869;50.432;8.680;2023-04-15T10:01:40;11.00;99.90
5689;DHT22;2869;50.432;8.680;2023-04-15T10:04:08;11.20;99.90
5689;DHT22;2869;50.432;8.680;2023-04-15T10:06:35;11.80;99.90
5689;DHT22;2869;50.432;8.680;2023-04-15T10:09:02;12.40;99.90
5689;DHT22;2869;50.432;8.680;2023-04-15T10:11:30;12.90;99.90
5689;DHT22;2869;50.432;8.680;2023-04-15T10:13:59;13.20;99.90
5689;DHT22;2869;50.432;8.680;2023-04-15T10:16:27;12.60;99.90
5689;DHT22;2869;50.432;8.680;2023-04-15T10:18:55;12.20;99.90
5689;DHT22;2869;50.432;8.680;2023-04-15T10:21:23;11.80;99.90
5689;DHT22;2869;50.432;8.680;2023-04-15T10:23:50;11.70;99.90
5689;DHT22;2869;50.432;8.680;2023-04-15T10:26:17;11.60;99.90
5689;DHT22;2869;50.432;8.680;2023-04-15T10:28:45;11.50;99.90
5689;DHT22;2869;50.432;8.680;2023-04-15T10:31:13;11.30;99.90
5689;DHT22;2869;50.432;8.680;2023-04-15T10:33:41;11.20;99.90
5689;DHT22;2869;50.432;8.680;2023-04-15T10:36:08;10.90;99.90
5689;DHT22;2869;50.432;8.680;2023-04-15T10:38:39;10.70;99.90
5689;DHT22;2869;50.432;8.680;2023-04-15T10:41:14;10.50;99.90
5689;DHT22;2869;50.432;8.680;2023-04-15T10:43:48;10.30;99.90
5689;DHT22;2869;50.432;8.680;2023-04-15T10:46:17;10.20;99.90
5689;DHT22;2869;50.432;8.680;2023-04-15T10:48:48;10.10;99.90
5689;DHT22;2869;50.432;8.680;2023-04-15T10:51:15;10.00;99.90
5689;DHT22;2869;50.432;8.680;2023-04-15T10:53:43;10.00;99.90
5689;DHT22;2869;50.432;8.680;2023-04-15T10:56:10;10.10;99.90
5689;DHT22;2869;50.432;8.680;2023-04-15T10:58:42;10.10;99.90
5689;DHT22;2869;50.432;8.680;2023-04-15T11:01:12;10.10;99.90
5689;DHT22;2869;50.432;8.680;2023-04-15T11:03:41;10.10;99.90
5689;DHT22;2869;50.432;8.680;2023-04-15T11:06:08;10.10;99.90
5689;DHT22;2869;50.432;8.680;2023-04-15T11:08:55;10.10;99.90
5689;DHT22;2869;50.432;8.680;2023-04-15T11:14:05;10.20;99.90
5689;DHT22;2869;50.432;8.680;2023-04-15T11:16:42;10.20;99.90
5689;DHT22;2869;50.432;8.680;2023-04-15T11:19:09;10.10;99.90
5689;DHT22;2869;50.432;8.680;2023-04-15T11:21:36;10.10;99.90
5689;DHT22;2869;50.432;8.680;2023-04-15T11:24:04;10.00;99.90
5689;DHT22;2869;50.432;8.680;2023-04-15T11:26:30;9.90;99.90
5689;DHT22;2869;50.432;8.680;2023-04-15T11:28:57;9.90;99.90
5689;DHT22;2869;50.432;8.680;2023-04-15T11:31:27;9.90;99.90
5689;DHT22;2869;50.432;8.680;2023-04-15T11:33:57;9.90;99.90
5689;DHT22;2869;50.432;8.680;2023-04-15T11:36:27;9.90;99.90
5689;DHT22;2869;50.432;8.680;2023-04-15T11:38:54;9.90;99.90
5689;DHT22;2869;50.432;8.680;2023-04-15T11:41:23;9.90;99.90
5689;DHT22;2869;50.432;8.680;2023-04-15T11:43:50;9.80;99.90
5689;DHT22;2869;50.432;8.680;2023-04-15T11:46:17;9.80;99.90
5689;DHT22;2869;50.432;8.680;2023-04-15T11:48:45;9.80;99.90
5689;DHT22;2869;50.432;8.680;2023-04-15T11:51:13;9.80;99.90
5689;DHT22;2869;50.432;8.680;2023-04-15T11:53:42;9.70;99.90
5689;DHT22;2869;50.432;8.680;2023-04-15T11:56:15;9.70;99.90
5689;DHT22;2869;50.432;8.680;2023-04-15T11:58:42;9.60;99.90
5689;DHT22;2869;50.432;8.680;2023-04-15T12:01:10;9.60;99.90
5689;DHT22;2869;50.432;8.680;2023-04-15T12:03:39;9.70;99.90
5689;DHT22;2869;50.432;8.680;2023-04-15T12:06:11;9.70;99.90
5689;DHT22;2869;50.432;8.680;2023-04-15T12:08:58;9.70;99.90
5689;DHT22;2869;50.432;8.680;2023-04-15T12:11:34;9.70;99.90
5689;DHT22;2869;50.432;8.680;2023-04-15T12:14:07;9.60;99.90
5689;DHT22;2869;50.432;8.680;2023-04-15T12:16:34;9.60;99.90
5689;DHT22;2869;50.432;8.680;2023-04-15T12:19:04;9.70;99.90
5689;DHT22;2869;50.432;8.680;2023-04-15T12:21:34;9.60;99.90
5689;DHT22;2869;50.432;8.680;2023-04-15T12:24:03;9.60;99.90
5689;DHT22;2869;50.432;8.680;2023-04-15T12:26:33;9.50;99.90
5689;DHT22;2869;50.432;8.680;2023-04-15T12:29:02;9.50;99.90
5689;DHT22;2869;50.432;8.680;2023-04-15T12:31:29;9.50;99.90
5689;DHT22;2869;50.432;8.680;2023-04-15T12:33:56;9.50;99.90
5689;DHT22;2869;50.432;8.680;2023-04-15T12:36:23;9.50;99.90
5689;DHT22;2869;50.432;8.680;2023-04-15T12:38:50;9.50;99.90
5689;DHT22;2869;50.432;8.680;2023-04-15T12:41:19;9.60;99.90
5689;DHT22;2869;50.432;8.680;2023-04-15T12:43:46;9.50;99.90
5689;DHT22;2869;50.432;8.680;2023-04-15T12:46:13;9.50;99.90
5689;DHT22;2869;50.432;8.680;2023-04-15T12:48:39;9.60;99.90
5689;DHT22;2869;50.432;8.680;2023-04-15T12:51:06;9.50;99.90
5689;DHT22;2869;50.432;8.680;2023-04-15T12:53:33;9.50;99.90
5689;DHT22;2869;50.432;8.680;2023-04-15T12:56:00;9.50;99.90
5689;DHT22;2869;50.432;8.680;2023-04-15T12:58:28;9.40;99.90
5689;DHT22;2869;50.432;8.680;2023-04-15T13:00:54;9.40;99.90
5689;DHT22;2869;50.432;8.680;2023-04-15T13:03:21;9.40;99.90
5689;DHT22;2869;50.432;8.680;2023-04-15T13:05:48;9.30;99.90
5689;DHT22;2869;50.432;8.680;2023-04-15T13:08:15;9.30;99.90
5689;DHT22;2869;50.432;8.680;2023-04-15T13:10:42;9.20;99.90
5689;DHT22;2869;50.432;8.680;2023-04-15T13:13:08;9.20;99.90
5689;DHT22;2869;50.432;8.680;2023-04-15T13:15:37;9.20;99.90
5689;DHT22;2869;50.432;8.680;2023-04-15T13:18:05;9.20;99.90
5689;DHT22;2869;50.432;8.680;2023-04-15T13:20:32;9.10;99.90
5689;DHT22;2869;50.432;8.680;2023-04-15T13:22:58;9.10;99.90
5689;DHT22;2869;50.432;8.680;2023-04-15T13:25:25;9.10;99.90
5689;DHT22;2869;50.432;8.680;2023-04-15T13:27:52;9.00;99.90
5689;DHT22;2869;50.432;8.680;2023-04-15T13:30:19;9.00;99.90
5689;DHT22;2869;50.432;8.680;2023-04-15T13:32:47;9.00;99.90
5689;DHT22;2869;50.432;8.680;2023-04-15T13:35:14;9.00;99.90
5689;DHT22;2869;50.432;8.680;2023-04-15T13:37:41;9.00;99.90
5689;DHT22;2869;50.432;8.680;2023-04-15T13:40:08;9.10;99.90
5689;DHT22;2869;50.432;8.680;2023-04-15T13:42:35;9.10;99.90
5689;DHT22;2869;50.432;8.680;2023-04-15T13:45:03;9.10;99.90
5689;DHT22;2869;50.432;8.680;2023-04-15T13:47:29;9.20;99.90
5689;DHT22;2869;50.432;8.680;2023-04-15T13:49:57;9.20;99.90
5689;DHT22;2869;50.432;8.680;2023-04-15T13:52:24;9.20;99.90
5689;DHT22;2869;50.432;8.680;2023-04-15T13:54:51;9.10;99.90
5689;DHT22;2869;50.432;8.680;2023-04-15T13:57:17;9.00;99.90
5689;DHT22;2869;50.432;8.680;2023-04-15T13:59:44;9.00;99.90
5689;DHT22;2869;50.432;8.680;2023-04-15T14:02:11;8.90;99.90
5689;DHT22;2869;50.432;8.680;2023-04-15T14:04:37;8.90;99.90
5689;DHT22;2869;50.432;8.680;2023-04-15T14:07:05;8.80;99.90
5689;DHT22;2869;50.432;8.680;2023-04-15T14:09:32;8.80;99.90
5689;DHT22;2869;50.432;8.680;2023-04-15T14:12:00;8.80;99.90
5689;DHT22;2869;50.432;8.680;2023-04-15T14:14:27;8.80;99.90
5689;DHT22;2869;50.432;8.680;2023-04-15T14:16:54;8.90;99.90
5689;DHT22;2869;50.432;8.680;2023-04-15T14:19:21;8.90;99.90
5689;DHT22;2869;50.432;8.680;2023-04-15T14:21:48;8.90;99.90
5689;DHT22;2869;50.432;8.680;2023-04-15T14:24:16;9.00;99.90
5689;DHT22;2869;50.432;8.680;2023-04-15T14:26:42;9.00;99.90
5689;DHT22;2869;50.432;8.680;2023-04-15T14:29:09;9.00;99.90
5689;DHT22;2869;50.432;8.680;2023-04-15T14:31:36;8.90;99.90
5689;DHT22;2869;50.432;8.680;2023-04-15T14:34:03;8.90;99.90
5689;DHT22;2869;50.432;8.680;2023-04-15T14:36:30;8.90;99.90
5689;DHT22;2869;50.432;8.680;2023-04-15T14:38:57;8.80;99.90
5689;DHT22;2869;50.432;8.680;2023-04-15T14:41:26;8.80;99.90
5689;DHT22;2869;50.432;8.680;2023-04-15T14:43:52;8.80;99.90
5689;DHT22;2869;50.432;8.680;2023-04-15T14:46:19;8.70;99.90
5689;DHT22;2869;50.432;8.680;2023-04-15T14:48:46;8.70;99.90
5689;DHT22;2869;50.432;8.680;2023-04-15T14:51:13;8.70;99.90
5689;DHT22;2869;50.432;8.680;2023-04-15T14:53:39;8.70;99.90
5689;DHT22;2869;50.432;8.680;2023-04-15T14:56:06;8.70;99.90
5689;DHT22;2869;50.432;8.680;2023-04-15T14:58:34;8.70;99.90
5689;DHT22;2869;50.432;8.680;2023-04-15T15:01:01;8.70;99.90
5689;DHT22;2869;50.432;8.680;2023-04-15T15:03:28;8.70;99.90
5689;DHT22;2869;50.432;8.680;2023-04-15T15:05:55;8.70;99.90
5689;DHT22;2869;50.432;8.680;2023-04-15T15:08:22;8.70;99.90
5689;DHT22;2869;50.432;8.680;2023-04-15T15:10:49;8.70;99.90
5689;DHT22;2869;50.432;8.680;2023-04-15T15:13:16;8.80;99.90
5689;DHT22;2869;50.432;8.680;2023-04-15T15:15:45;8.70;99.90
5689;DHT22;2869;50.432;8.680;2023-04-15T15:18:13;8.70;99.90
5689;DHT22;2869;50.432;8.680;2023-04-15T15:20:41;8.70;99.90
5689;DHT22;2869;50.432;8.680;2023-04-15T15:23:07;8.70;99.90
5689;DHT22;2869;50.432;8.680;2023-04-15T15:25:34;8.70;99.90
5689;DHT22;2869;50.432;8.680;2023-04-15T15:28:01;8.70;99.90
5689;DHT22;2869;50.432;8.680;2023-04-15T15:30:27;8.70;99.90
5689;DHT22;2869;50.432;8.680;2023-04-15T15:32:56;8.70;99.90
5689;DHT22;2869;50.432;8.680;2023-04-15T15:35:22;8.70;99.90
5689;DHT22;2869;50.432;8.680;2023-04-15T15:37:50;8.70;99.90
5689;DHT22;2869;50.432;8.680;2023-04-15T15:40:17;8.70;99.90
5689;DHT22;2869;50.432;8.680;2023-04-15T15:42:44;8.70;99.90
5689;DHT22;2869;50.432;8.680;2023-04-15T15:45:14;8.70;99.90
5689;DHT22;2869;50.432;8.680;2023-04-15T15:47:41;8.70;99.90
5689;DHT22;2869;50.432;8.680;2023-04-15T15:50:09;8.70;99.90
5689;DHT22;2869;50.432;8.680;2023-04-15T15:52:36;8.70;99.90
5689;DHT22;2869;50.432;8.680;2023-04-15T15:55:03;8.70;99.90
5689;DHT22;2869;50.432;8.680;2023-04-15T15:57:30;8.70;99.90
5689;DHT22;2869;50.432;8.680;2023-04-15T15:59:57;8.70;99.90
5689;DHT22;2869;50.432;8.680;2023-04-15T16:02:23;8.70;99.90
5689;DHT22;2869;50.432;8.680;2023-04-15T16:04:50;8.60;99.90
5689;DHT22;2869;50.432;8.680;2023-04-15T16:07:18;8.60;99.90
5689;DHT22;2869;50.432;8.680;2023-04-15T16:09:45;8.60;99.90
5689;DHT22;2869;50.432;8.680;2023-04-15T16:12:12;8.60;99.90
5689;DHT22;2869;50.432;8.680;2023-04-15T16:14:38;8.60;99.90
5689;DHT22;2869;50.432;8.680;2023-04-15T16:17:05;8.60;99.90
5689;DHT22;2869;50.432;8.680;2023-04-15T16:19:31;8.60;99.90